Time;durP1;ratioP1;P1;durP2;ratioP2;P2;SDS_P1;SDS_P2;PMS_P1;PMS_P2;Temp;Humidity;BMP_temperature;BMP_pressure;BME280_temperature;BME280_humidity;BME280_pressure;Samples;Min_cycle;Max_cycle;Signal;HPM_P1;HPM_P2
2022/03/27 00:00:39;;;;;;;20.23;9.73;;;9.20;42.10;;;9.78;37.38;98735.97;5031426;28;20063;-53
2022/03/27 00:03:07;;;;;;;21.27;10.83;;;9.20;43.20;;;9.76;37.40;98735.25;5031275;28;20061;-54
2022/03/27 00:05:35;;;;;;;21.67;11.50;;;9.20;42.40;;;9.72;37.47;98731.19;5030734;28;20422;-56
2022/03/27 00:08:04;;;;;;;18.90;10.50;;;9.00;42.60;;;9.68;37.32;98727.09;5030831;28;20056;-57
2022/03/27 00:11:23;;;;;;;18.73;10.37;;;9.00;42.80;;;9.64;37.63;98739.78;5030877;28;20037;-57
2022/03/27 00:13:21;;;;;;;24.90;11.03;;;9.00;42.80;;;9.60;37.90;98736.53;5030730;28;20055;-56
2022/03/27 00:15:49;;;;;;;22.67;10.93;;;8.90;43.20;;;9.55;37.71;98740.56;5031190;28;20233;-54
2022/03/27 00:18:16;;;;;;;18.63;10.50;;;8.90;43.10;;;9.53;37.70;98738.03;5031029;28;20049;-56
2022/03/27 00:20:44;;;;;;;20.10;11.67;;;8.80;43.20;;;9.50;38.17;98737.44;5029565;28;20169;-55
2022/03/27 00:23:12;;;;;;;21.47;10.43;;;8.80;43.40;;;9.44;38.31;98733.47;5031682;28;20053;-56
2022/03/27 00:25:40;;;;;;;22.80;11.57;;;8.70;43.70;;;9.42;38.30;98732.75;5029343;28;20067;-57
2022/03/27 00:28:07;;;;;;;26.47;10.03;;;8.70;43.90;;;9.39;38.31;98722.38;5031068;28;20248;-56
2022/03/27 00:30:35;;;;;;;19.17;9.97;;;8.70;43.80;;;9.38;38.33;98720.69;5031117;28;20419;-56
2022/03/27 00:33:03;;;;;;;18.97;10.37;;;8.70;43.80;;;9.36;38.64;98722.63;5031149;28;20041;-55
2022/03/27 00:35:31;;;;;;;22.47;11.23;;;8.70;43.90;;;9.30;38.67;98723.97;5030702;28;20049;-54
2022/03/27 00:37:59;;;;;;;19.30;9.57;;;8.60;44.10;;;9.27;38.61;98721.59;5028524;28;20060;-56
2022/03/27 00:40:27;;;;;;;21.97;11.47;;;8.60;44.20;;;9.25;38.47;98718.22;5030640;28;20069;-56
2022/03/27 00:42:55;;;;;;;16.37;10.30;;;8.50;44.10;;;9.19;39.14;98719.56;5031155;28;20246;-57
2022/03/27 00:45:22;;;;;;;19.87;10.70;;;8.50;44.30;;;9.17;38.83;98720.63;5030321;28;20053;-57
2022/03/27 00:47:50;;;;;;;18.07;10.47;;;8.50;44.30;;;9.13;38.94;98722.72;5030896;28;20060;-57
2022/03/27 00:50:19;;;;;;;18.13;9.47;;;8.40;44.50;;;9.10;39.06;98719.47;5030393;28;20384;-54
2022/03/27 00:52:47;;;;;;;21.00;9.93;;;8.40;44.60;;;9.06;38.81;98724.19;5029729;28;20059;-53
2022/03/27 00:55:15;;;;;;;21.53;10.77;;;8.40;44.70;;;9.02;39.20;98728.06;5029129;28;20243;-54
2022/03/27 00:57:43;;;;;;;23.37;11.17;;;8.30;45.00;;;8.99;39.08;98723.00;5029701;28;20041;-57
2022/03/27 01:00:45;;;;;;;22.73;11.07;;;8.30;45.20;;;8.97;39.50;98725.78;5029893;28;20349;-56
2022/03/27 01:03:23;;;;;;;19.63;9.63;;;8.30;46.10;;;8.95;39.41;98724.22;5029195;28;20427;-57
2022/03/27 01:05:57;;;;;;;20.67;11.17;;;8.30;46.00;;;8.89;39.42;98722.91;5029448;28;20275;-56
2022/03/27 01:11:21;;;;;;;22.03;10.00;;;8.20;47.10;;;8.82;39.49;98714.59;5028180;28;19917;-58
2022/03/27 01:13:58;;;;;;;;;;;8.10;45.80;;;8.74;39.94;98710.84;5029201;28;20075;-56
2022/03/27 01:16:43;;;;;;;20.40;10.73;;;8.00;48.10;;;8.77;39.89;98716.78;5028818;28;19917;-57
2022/03/27 01:19:15;;;;;;;;;;;8.10;46.90;;;8.75;39.78;98715.22;5031018;28;20256;-55
2022/03/27 01:21:46;;;;;;;24.47;11.33;;;8.10;47.60;;;8.74;39.49;98711.69;5030022;28;19917;-57
2022/03/27 01:24:17;;;;;;;19.67;10.00;;;8.00;45.80;;;8.69;39.72;98711.25;5029653;28;20065;-57
2022/03/27 01:26:46;;;;;;;22.40;10.77;;;8.00;46.00;;;8.62;39.90;98710.03;5029560;28;20235;-56
2022/03/27 01:29:14;;;;;;;20.87;10.93;;;7.90;46.10;;;8.62;39.74;98710.88;5029774;28;20213;-54
2022/03/27 01:31:42;;;;;;;19.63;11.00;;;7.90;45.70;;;8.60;39.97;98704.84;5029928;28;20064;-54
2022/03/27 01:34:10;;;;;;;19.70;11.07;;;7.90;46.10;;;8.57;40.19;98706.91;5029347;28;20048;-56
2022/03/27 01:36:39;;;;;;;26.33;11.03;;;7.90;46.20;;;8.56;39.65;98703.41;5027736;28;20049;-57
2022/03/27 01:39:10;;;;;;;19.73;10.07;;;7.90;46.00;;;8.54;39.88;98710.66;5029720;28;20053;-57
2022/03/27 01:41:40;;;;;;;24.10;10.13;;;7.90;46.20;;;8.52;39.83;98709.94;5030016;28;20045;-58
2022/03/27 01:44:18;;;;;;;19.47;10.93;;;7.80;46.20;;;8.47;40.04;98702.34;5029684;28;20053;-58
2022/03/27 01:46:46;;;;;;;22.57;10.57;;;7.80;46.80;;;8.44;40.46;98699.09;5028341;28;20053;-57
2022/03/27 01:49:16;;;;;;;21.50;10.30;;;7.70;46.50;;;8.39;40.23;98696.75;5027651;28;20049;-58
2022/03/27 01:51:44;;;;;;;19.60;10.93;;;7.70;46.80;;;8.39;40.59;98694.09;5028649;28;20041;-57
2022/03/27 01:54:13;;;;;;;18.97;10.90;;;7.70;46.50;;;8.38;40.53;98692.41;5030161;28;20044;-56
2022/03/27 01:56:41;;;;;;;18.93;9.87;;;7.70;46.60;;;8.38;40.62;98688.94;5029752;28;20417;-56
2022/03/27 01:59:10;;;;;;;22.13;12.03;;;7.70;46.60;;;8.37;40.78;98687.22;5029673;28;20045;-53
2022/03/27 02:01:38;;;;;;;22.20;12.20;;;7.70;46.70;;;8.35;40.93;98684.69;5029263;28;20061;-57
2022/03/27 02:04:07;;;;;;;25.53;12.63;;;7.70;46.70;;;8.31;40.17;98688.56;5028602;28;20045;-57
2022/03/27 02:06:39;;;;;;;19.83;10.77;;;7.60;46.90;;;8.30;40.89;98689.53;5027417;28;20068;-57
2022/03/27 02:09:09;;;;;;;25.17;11.77;;;7.60;46.80;;;8.28;40.90;98692.31;5028398;28;20059;-56
2022/03/27 02:11:37;;;;;;;21.67;11.27;;;7.60;47.10;;;8.17;40.59;98688.81;5028285;28;20078;-56
2022/03/27 02:14:05;;;;;;;19.37;10.70;;;7.50;47.50;;;8.14;41.27;98687.22;5028899;28;20052;-57
2022/03/27 02:16:32;;;;;;;22.97;10.97;;;7.40;47.70;;;8.14;41.15;98691.69;5029411;28;20042;-57
2022/03/27 02:19:00;;;;;;;22.50;12.67;;;7.40;47.70;;;8.08;41.08;98685.94;5029513;28;20057;-55
2022/03/27 02:21:28;;;;;;;22.20;10.53;;;7.40;47.90;;;8.08;41.02;98683.28;5028736;28;20577;-56
2022/03/27 02:23:56;;;;;;;20.60;10.43;;;7.40;47.70;;;8.08;41.45;98685.06;5029443;28;20347;-56
2022/03/27 02:26:24;;;;;;;19.80;9.93;;;7.40;47.80;;;8.07;41.55;98686.88;5028486;28;20045;-55
2022/03/27 02:28:51;;;;;;;21.27;10.13;;;7.40;47.80;;;8.09;41.60;98686.75;5028885;28;20053;-56
2022/03/27 02:31:19;;;;;;;20.73;10.57;;;7.50;47.70;;;8.09;41.40;98692.06;5028511;28;20259;-56
2022/03/27 02:33:48;;;;;;;24.03;10.90;;;7.50;47.70;;;8.04;41.55;98697.72;5029006;28;20041;-55
2022/03/27 02:36:16;;;;;;;24.80;10.73;;;7.40;47.80;;;8.05;41.66;98702.06;5028754;28;20053;-57
2022/03/27 02:38:44;;;;;;;22.00;11.50;;;7.40;47.80;;;8.02;41.80;98691.69;5029809;28;20252;-57
2022/03/27 02:41:12;;;;;;;22.57;9.53;;;7.40;47.70;;;8.02;41.48;98693.50;5029394;28;20049;-57
2022/03/27 02:43:40;;;;;;;16.87;9.80;;;7.40;47.90;;;8.01;41.31;98689.16;5029087;28;20382;-58
2022/03/27 02:46:08;;;;;;;19.17;10.80;;;7.40;47.90;;;7.97;42.02;98691.22;5029248;28;20220;-55
2022/03/27 02:48:36;;;;;;;21.50;10.63;;;7.30;48.30;;;7.98;41.36;98690.22;5029228;28;20068;-55
2022/03/27 02:51:05;;;;;;;15.97;9.47;;;7.30;48.00;;;7.98;41.54;98692.06;5030152;28;20053;-56
2022/03/27 02:53:33;;;;;;;20.50;10.67;;;7.40;47.90;;;7.99;41.86;98689.28;5030118;28;20344;-56
2022/03/27 02:56:04;;;;;;;24.47;11.50;;;7.40;47.90;;;7.95;41.97;98690.50;5029537;28;20060;-57
2022/03/27 02:58:32;;;;;;;20.73;10.83;;;7.30;48.20;;;7.90;41.44;98684.69;5030637;28;20045;-58
2022/03/27 03:01:00;;;;;;;17.87;10.07;;;7.20;48.50;;;7.87;41.93;98691.09;5030593;28;20053;-57
2022/03/27 03:03:28;;;;;;;14.70;9.30;;;7.20;48.20;;;7.88;41.58;98695.41;5028039;28;20057;-57
2022/03/27 03:05:57;;;;;;;22.53;9.70;;;7.30;48.00;;;7.87;42.08;98693.75;5029842;28;20053;-57
2022/03/27 03:08:27;;;;;;;19.57;9.97;;;7.20;48.30;;;7.85;41.77;98690.38;5028422;28;20053;-58
2022/03/27 03:10:56;;;;;;;18.73;9.83;;;7.20;48.40;;;7.81;42.26;98693.34;5030303;28;20046;-58
2022/03/27 03:13:24;;;;;;;24.23;10.90;;;7.10;48.70;;;7.78;42.09;98689.13;5030409;28;20057;-57
2022/03/27 03:15:54;;;;;;;20.43;10.17;;;7.10;49.20;;;7.75;42.22;98678.75;5029770;28;20053;-57
2022/03/27 03:18:24;;;;;;;22.53;10.70;;;7.10;49.20;;;7.77;41.86;98683.94;5028472;28;20057;-57
2022/03/27 03:20:52;;;;;;;23.57;10.73;;;7.10;48.90;;;7.80;42.16;98689.03;5030011;28;20244;-58
2022/03/27 03:23:20;;;;;;;20.00;10.23;;;7.20;48.70;;;7.79;41.76;98688.19;5031145;28;20108;-58
2022/03/27 03:25:47;;;;;;;23.87;10.97;;;7.20;48.70;;;7.73;42.61;98687.78;5031942;28;20398;-58
2022/03/27 03:28:35;;;;;;;21.23;10.53;;;7.00;49.10;;;7.69;42.85;98688.03;5031989;28;20045;-58
2022/03/27 03:31:03;;;;;;;22.47;11.33;;;7.00;49.20;;;7.68;42.10;98690.81;5030795;28;20247;-57
2022/03/27 03:33:32;;;;;;;31.33;13.40;;;6.90;49.40;;;7.61;42.19;98686.94;5031265;28;20045;-58
2022/03/27 03:36:00;;;;;;;29.17;11.93;;;6.90;49.90;;;7.56;42.38;98689.06;5034150;28;20055;-58
2022/03/27 03:38:28;;;;;;;15.97;10.97;;;6.80;50.00;;;7.51;43.06;98692.09;5034129;28;20047;-58
2022/03/27 03:40:56;;;;;;;21.63;11.10;;;6.80;50.20;;;7.48;43.11;98695.81;5032932;28;20053;-57
2022/03/27 03:43:24;;;;;;;20.60;11.00;;;6.80;50.40;;;7.48;43.33;98693.19;5033407;28;20057;-58
2022/03/27 03:45:51;;;;;;;21.33;11.47;;;6.80;50.20;;;7.49;42.82;98692.19;5033854;28;20344;-58
2022/03/27 03:48:19;;;;;;;23.30;12.50;;;6.80;50.00;;;7.51;43.08;98700.03;5035046;28;20389;-58
2022/03/27 03:50:47;;;;;;;21.63;11.70;;;6.90;49.60;;;7.51;43.11;98693.91;5035054;28;20687;-57
2022/03/27 03:53:15;;;;;;;20.07;10.83;;;6.90;49.90;;;7.50;43.38;98695.69;5036289;28;20046;-57
2022/03/27 03:55:43;;;;;;;21.70;11.30;;;6.90;50.00;;;7.53;42.93;98684.03;5036821;28;20053;-57
2022/03/27 03:58:10;;;;;;;30.03;12.87;;;6.90;49.50;;;7.55;42.88;98692.72;5036243;28;20052;-58
2022/03/27 04:00:38;;;;;;;20.03;11.33;;;7.00;49.20;;;7.58;43.16;98698.63;5034684;28;20479;-58
2022/03/27 04:03:07;;;;;;;23.60;12.07;;;7.00;49.20;;;7.56;42.53;98703.19;5034929;28;20060;-58
2022/03/27 04:05:35;;;;;;;18.63;9.40;;;7.00;49.70;;;7.53;43.06;98702.56;5034311;28;20053;-58
2022/03/27 04:08:03;;;;;;;21.27;10.53;;;6.80;50.00;;;7.51;42.56;98696.56;5033897;28;20267;-58
2022/03/27 04:10:31;;;;;;;21.27;11.93;;;6.90;49.70;;;7.51;42.99;98707.16;5034628;28;20052;-58
2022/03/27 04:12:59;;;;;;;25.00;11.70;;;6.90;49.50;;;7.52;42.52;98699.06;5034764;28;20053;-57
2022/03/27 04:15:27;;;;;;;21.67;10.57;;;7.00;49.30;;;7.53;42.74;98703.41;5034316;28;20058;-58
2022/03/27 04:18:15;;;;;;;19.50;11.37;;;7.00;49.30;;;7.53;43.08;98702.56;5034253;28;20355;-59
2022/03/27 04:20:43;;;;;;;22.40;12.63;;;7.00;49.20;;;7.52;42.67;98696.41;5034549;28;20053;-58
2022/03/27 04:23:11;;;;;;;23.27;12.20;;;7.00;49.20;;;7.49;43.05;98696.66;5032808;28;20045;-58
2022/03/27 04:25:39;;;;;;;23.40;12.50;;;6.90;49.50;;;7.45;42.49;98696.03;5034407;28;20052;-57
2022/03/27 04:28:10;;;;;;;21.87;12.67;;;6.80;49.60;;;7.42;43.43;98693.63;5032360;28;20057;-58
2022/03/27 04:30:38;;;;;;;21.80;11.03;;;6.80;49.90;;;7.41;43.59;98699.88;5033863;28;20347;-57
2022/03/27 04:33:07;;;;;;;22.57;11.67;;;6.80;50.00;;;7.38;43.30;98692.16;5033898;28;20052;-58
2022/03/27 04:35:35;;;;;;;21.23;12.37;;;6.70;50.30;;;7.36;43.50;98693.25;5034683;28;20337;-58
2022/03/27 04:38:03;;;;;;;25.27;12.17;;;6.70;50.40;;;7.33;43.08;98702.28;5033420;28;20049;-57
2022/03/27 04:40:32;;;;;;;19.77;10.80;;;6.70;50.80;;;7.23;43.58;98694.16;5033475;28;20079;-56
2022/03/27 04:42:59;;;;;;;23.30;12.47;;;6.60;51.20;;;7.21;43.45;98701.38;5031770;28;20330;-57
2022/03/27 04:45:27;;;;;;;25.13;12.80;;;6.50;51.20;;;7.20;43.74;98691.75;5033510;28;20343;-57
2022/03/27 04:47:55;;;;;;;25.47;12.73;;;6.50;51.40;;;7.15;44.21;98693.03;5032300;28;20046;-58
2022/03/27 04:50:23;;;;;;;26.03;11.47;;;6.50;51.70;;;7.12;43.70;98703.88;5031885;28;20057;-57
2022/03/27 04:52:51;;;;;;;28.20;13.57;;;6.40;51.80;;;7.07;44.33;98704.19;5032934;28;20053;-58
2022/03/27 04:55:19;;;;;;;22.13;13.93;;;6.40;51.80;;;7.03;44.31;98698.28;5032955;28;20262;-57
2022/03/27 04:57:48;;;;;;;20.07;11.13;;;6.30;51.80;;;7.00;44.18;98701.16;5033035;28;20057;-58
2022/03/27 05:00:17;;;;;;;24.17;12.63;;;6.30;51.70;;;6.97;43.89;98706.69;5031972;28;20071;-58
2022/03/27 05:02:45;;;;;;;24.00;13.90;;;6.30;51.90;;;6.97;44.47;98708.50;5032506;28;20071;-58
2022/03/27 05:05:15;;;;;;;24.80;14.57;;;6.30;52.00;;;6.95;44.54;98716.53;5032604;28;20045;-57
2022/03/27 05:07:44;;;;;;;24.37;13.60;;;6.20;51.90;;;6.95;43.77;98713.88;5030959;28;20057;-58
2022/03/27 05:10:14;;;;;;;22.77;12.97;;;6.30;51.70;;;6.97;44.30;98714.63;5033780;28;20067;-57
2022/03/27 05:12:42;;;;;;;22.63;13.37;;;6.40;51.90;;;6.93;44.91;98721.09;5033896;28;20041;-59
2022/03/27 05:15:10;;;;;;;25.93;13.23;;;6.30;52.30;;;6.88;45.09;98717.94;5033537;28;20427;-59
2022/03/27 05:17:54;;;;;;;22.47;11.80;;;6.20;52.30;;;6.88;44.62;98713.50;5031320;28;20045;-56
2022/03/27 05:20:24;;;;;;;19.87;12.43;;;6.20;52.90;;;6.89;44.49;98712.53;5027056;28;20080;-57
2022/03/27 05:22:52;;;;;;;31.13;14.33;;;6.30;52.30;;;6.86;45.08;98706.59;5027786;28;20061;-59
2022/03/27 05:25:20;;;;;;;26.10;11.90;;;6.20;52.50;;;6.82;44.42;98713.09;5009585;28;20244;-58
2022/03/27 05:27:53;;;;;;;20.90;12.17;;;6.10;52.70;;;6.78;44.47;98706.34;5027875;28;20267;-58
2022/03/27 05:30:24;;;;;;;22.58;12.60;;;6.10;53.20;;;6.77;44.69;98713.44;5028538;28;20053;-57
2022/03/27 05:32:56;;;;;;;26.80;15.10;;;6.10;53.10;;;6.76;45.03;98711.72;5027609;28;20267;-57
2022/03/27 05:35:24;;;;;;;31.00;16.43;;;6.10;53.00;;;6.76;44.79;98711.72;5026987;28;20201;-58
2022/03/27 05:37:54;;;;;;;34.70;17.30;;;6.10;53.00;;;6.71;45.00;98708.59;5027485;28;20251;-56
2022/03/27 05:40:23;;;;;;;23.17;14.87;;;6.00;53.20;;;6.62;45.93;98712.72;5028108;28;20059;-57
2022/03/27 05:42:52;;;;;;;31.50;14.70;;;5.90;54.00;;;6.66;45.79;98714.19;5027957;28;20049;-57
2022/03/27 05:45:20;;;;;;;28.97;14.50;;;6.10;53.90;;;6.71;45.43;98716.53;5027145;28;20045;-56
2022/03/27 05:47:49;;;;;;;24.73;15.37;;;6.10;53.70;;;6.74;45.06;98715.44;5026958;28;20061;-56
2022/03/27 05:50:19;;;;;;;30.10;15.47;;;6.20;53.00;;;6.79;45.56;98719.47;5027536;28;20363;-57
2022/03/27 05:52:47;;;;;;;27.13;15.43;;;6.30;53.00;;;6.82;45.31;98718.38;5026583;28;20045;-58
2022/03/27 05:55:15;;;;;;;27.07;14.27;;;6.30;53.40;;;6.82;45.76;98728.97;5027902;28;20046;-58
2022/03/27 05:57:43;;;;;;;24.97;13.97;;;6.20;53.30;;;6.84;45.61;98729.69;5026479;28;20055;-58
2022/03/27 06:00:16;;;;;;;29.57;14.90;;;6.30;53.20;;;6.90;45.11;98731.91;5027235;28;20054;-58
2022/03/27 06:02:44;;;;;;;25.67;13.43;;;6.40;52.90;;;6.94;45.66;98735.19;5028171;28;20065;-58
2022/03/27 06:05:12;;;;;;;24.03;14.20;;;6.50;52.50;;;7.00;45.59;98732.94;5026366;28;20247;-57
2022/03/27 06:07:47;;;;;;;23.63;13.57;;;6.60;52.40;;;7.05;45.50;98744.03;5027091;28;20053;-57
2022/03/27 06:10:21;;;;;;;22.70;12.63;;;6.70;52.60;;;7.10;45.36;98739.25;5026375;28;20067;-58
2022/03/27 06:12:50;;;;;;;23.10;13.15;;;6.70;52.30;;;7.12;45.29;98736.50;5026941;28;20249;-58
2022/03/27 06:15:19;;;;;;;22.53;13.03;;;6.70;52.20;;;7.17;44.86;98741.44;5027056;28;20057;-57
2022/03/27 06:17:53;;;;;;;24.90;13.87;;;6.80;52.10;;;7.21;45.30;98734.94;5026638;28;20077;-55
2022/03/27 06:20:23;;;;;;;24.27;14.68;;;6.80;52.80;;;7.23;45.65;98744.50;5008457;28;20045;-58
2022/03/27 06:22:53;;;;;;;22.00;14.17;;;6.80;52.70;;;7.27;44.88;98738.00;5025128;28;20053;-57
2022/03/27 06:25:26;;;;;;;26.87;13.70;;;6.80;52.50;;;7.29;45.81;98738.75;5026295;28;20045;-59
2022/03/27 06:27:55;;;;;;;22.75;12.13;;;6.80;52.70;;;7.32;45.12;98744.78;5025889;28;20045;-59
2022/03/27 06:30:27;;;;;;;26.33;12.73;;;6.80;52.50;;;7.38;45.23;98749.59;5027345;28;20352;-57
2022/03/27 06:33:02;;;;;;;20.37;12.40;;;6.90;52.80;;;7.40;45.76;98740.56;5027191;28;20052;-57
2022/03/27 06:35:31;;;;;;;21.37;11.07;;;6.90;53.00;;;7.45;45.74;98748.19;5026961;28;20053;-58
2022/03/27 06:37:59;;;;;;;25.23;13.10;;;7.00;52.70;;;7.49;45.46;98737.25;5024125;28;20045;-58
2022/03/27 06:40:26;;;;;;;21.73;11.83;;;7.10;52.80;;;7.54;45.66;98747.53;5026390;28;20057;-58
2022/03/27 06:42:54;;;;;;;22.00;12.17;;;7.20;52.80;;;7.59;45.95;98747.16;5025762;28;20045;-57
2022/03/27 06:45:25;;;;;;;21.37;11.97;;;7.20;52.50;;;7.62;45.48;98752.25;5024528;28;20053;-59
2022/03/27 06:47:54;;;;;;;22.50;12.23;;;7.20;52.80;;;7.66;45.71;98740.44;5026433;28;20056;-58
2022/03/27 06:50:23;;;;;;;23.73;12.70;;;7.30;52.30;;;7.71;45.53;98740.91;5025930;28;20430;-59
2022/03/27 06:52:54;;;;;;;22.70;12.37;;;7.40;52.30;;;7.75;45.76;98739.72;5025749;28;20045;-56
2022/03/27 06:55:22;;;;;;;22.20;12.13;;;7.40;52.50;;;7.81;45.90;98741.94;5025373;28;20046;-59
2022/03/27 06:57:50;;;;;;;20.87;12.20;;;7.50;52.40;;;7.89;45.59;98730.75;5024768;28;20075;-57
2022/03/27 07:03:11;;;;;;;22.57;12.90;;;7.70;52.40;;;8.03;46.24;98746.44;5026108;28;20057;-58
2022/03/27 07:05:42;;;;;;;29.63;14.87;;;7.80;52.50;;;8.11;46.31;98745.84;5025519;28;20245;-59
2022/03/27 07:08:13;;;;;;;31.87;15.73;;;7.90;52.60;;;8.19;46.32;98747.91;5028151;28;20042;-55
2022/03/27 07:10:43;;;;;;;28.80;15.83;;;8.00;52.50;;;8.27;45.90;98750.78;5029471;28;20263;-59
2022/03/27 07:13:13;;;;;;;22.43;12.93;;;8.00;52.30;;;8.33;45.87;98750.31;5030398;28;20053;-58
2022/03/27 07:15:43;;;;;;;23.50;11.80;;;8.10;52.40;;;8.40;46.36;98763.94;5030118;28;20072;-58
2022/03/27 07:18:13;;;;;;;25.67;14.10;;;8.30;52.50;;;8.45;46.28;98757.34;5029816;28;20060;-58
2022/03/27 07:20:42;;;;;;;28.67;14.53;;;8.40;52.30;;;8.55;46.30;98760.13;5028888;28;20064;-56
2022/03/27 07:23:16;;;;;;;23.83;14.13;;;8.40;52.00;;;8.63;45.80;98762.19;5030302;28;20049;-57
2022/03/27 07:25:46;;;;;;;25.42;13.38;;;8.50;52.00;;;8.69;45.93;98752.88;5028471;28;20132;-58
2022/03/27 07:28:16;;;;;;;20.37;12.27;;;8.50;51.80;;;8.74;46.03;98753.34;5029626;28;20068;-56
2022/03/27 07:30:48;;;;;;;22.73;13.07;;;8.60;51.50;;;8.79;45.97;98762.63;5029552;28;20068;-59
2022/03/27 07:33:17;;;;;;;24.80;13.37;;;8.70;51.60;;;8.85;45.73;98767.44;5029555;28;20045;-57
2022/03/27 07:35:45;;;;;;;22.37;12.83;;;8.70;51.70;;;8.91;45.59;98768.78;5030250;28;20049;-58
2022/03/27 07:38:15;;;;;;;22.53;12.57;;;8.70;51.70;;;8.94;45.49;98770.34;5029147;28;20346;-58
2022/03/27 07:40:43;;;;;;;22.63;13.03;;;8.80;51.50;;;8.98;45.83;98774.44;5029185;28;20370;-58
2022/03/27 07:43:11;;;;;;;21.93;12.90;;;8.80;51.60;;;9.01;45.86;98771.53;5028272;28;20069;-58
2022/03/27 07:45:39;;;;;;;26.77;13.27;;;8.80;51.30;;;9.05;45.50;98778.28;5030359;28;20052;-57
2022/03/27 07:48:07;;;;;;;33.27;15.60;;;8.90;51.20;;;9.11;45.45;98772.50;5029252;28;20061;-55
2022/03/27 07:50:35;;;;;;;27.07;14.27;;;9.00;51.20;;;9.15;45.74;98773.94;5028829;28;20057;-58
2022/03/27 07:53:05;;;;;;;25.90;14.17;;;9.00;51.20;;;9.14;45.72;98777.53;5029844;28;20053;-58
2022/03/27 07:55:34;;;;;;;27.93;15.87;;;9.00;51.30;;;9.19;45.47;98779.81;5029569;28;20046;-57
2022/03/27 07:58:02;;;;;;;26.90;13.07;;;9.10;51.40;;;9.23;45.53;98775.97;5028821;28;20053;-58
2022/03/27 08:00:30;;;;;;;28.60;13.97;;;9.10;51.50;;;9.29;45.51;98780.78;5034020;28;20050;-58
2022/03/27 08:02:58;;;;;;;25.03;13.83;;;9.20;51.40;;;9.35;45.48;98782.91;5038829;28;20061;-58
2022/03/27 08:05:27;;;;;;;23.20;12.47;;;9.20;51.20;;;9.37;45.41;98775.66;5038895;28;20057;-58
2022/03/27 08:07:56;;;;;;;30.27;13.47;;;9.20;51.10;;;9.42;45.60;98776.16;5037399;28;20216;-59
2022/03/27 08:10:24;;;;;;;22.87;14.30;;;9.30;51.30;;;9.46;45.50;98774.91;5036838;28;20041;-59
2022/03/27 08:12:52;;;;;;;22.27;12.07;;;9.30;51.20;;;9.52;45.46;98772.69;5039265;28;20566;-57
2022/03/27 08:15:21;;;;;;;18.20;11.63;;;9.40;51.30;;;9.55;45.50;98778.59;5037610;28;20339;-59
2022/03/27 08:17:54;;;;;;;18.93;11.03;;;9.40;51.20;;;9.63;45.37;98777.97;5037968;28;20056;-58
2022/03/27 08:20:27;;;;;;;20.90;11.52;;;9.50;51.10;;;9.67;45.25;98779.41;5043891;28;20059;-57
2022/03/27 08:22:56;;;;;;;18.23;11.57;;;9.60;51.00;;;9.70;45.49;98784.47;5049120;28;20047;-58
2022/03/27 08:28:14;;;;;;;17.83;11.30;;;9.70;51.70;;;9.84;45.40;98783.31;5047269;28;20258;-58
2022/03/27 08:30:42;;;;;;;23.53;11.30;;;9.70;50.90;;;9.90;45.32;98782.81;5047964;28;20053;-58
2022/03/27 08:33:10;;;;;;;20.17;12.07;;;9.80;50.60;;;9.95;45.13;98782.44;5049395;28;20057;-56
2022/03/27 08:35:41;;;;;;;22.40;12.10;;;9.90;50.70;;;9.99;45.15;98787.34;5048934;28;20059;-58
2022/03/27 08:38:15;;;;;;;21.40;11.90;;;9.90;50.70;;;10.02;45.78;98786.25;5047941;28;20061;-58
2022/03/27 08:40:47;;;;;;;21.80;13.27;;;10.00;51.60;;;10.05;45.79;98789.50;5047950;28;20041;-57
2022/03/27 08:43:17;;;;;;;20.10;12.27;;;10.00;51.30;;;10.13;45.69;98780.84;5048597;28;20059;-58
2022/03/27 08:45:45;;;;;;;21.07;11.37;;;10.10;51.20;;;10.22;45.54;98781.91;5048774;28;20052;-58
2022/03/27 08:48:13;;;;;;;16.93;11.03;;;10.20;51.00;;;10.29;45.53;98788.38;5047626;28;20236;-58
2022/03/27 08:51:25;;;;;;;21.20;10.97;;;10.30;51.20;;;10.34;45.56;98783.53;5048602;28;20254;-58
2022/03/27 08:54:07;;;;;;;17.33;10.90;;;10.40;51.10;;;10.43;45.54;98784.56;5046990;28;20045;-57
2022/03/27 08:56:35;;;;;;;18.73;11.43;;;10.40;51.30;;;10.49;45.34;98792.03;5048358;28;20355;-58
2022/03/27 08:59:09;;;;;;;23.27;11.70;;;10.40;50.60;;;10.54;45.19;98786.28;5047339;28;20351;-58
2022/03/27 09:01:38;;;;;;;16.90;10.73;;;10.60;50.40;;;10.63;44.89;98790.84;5048594;28;20366;-58
2022/03/27 09:04:06;;;;;;;20.33;10.37;;;10.60;50.20;;;10.69;45.13;98787.63;5048309;28;20063;-57
2022/03/27 09:06:34;;;;;;;20.80;11.73;;;10.70;50.30;;;10.77;45.15;98782.47;5047848;28;20040;-59
2022/03/27 09:09:02;;;;;;;22.40;11.10;;;10.80;50.20;;;10.86;44.80;98787.94;5047279;28;20061;-59
2022/03/27 09:11:32;;;;;;;17.57;10.90;;;10.80;50.00;;;10.91;45.11;98794.56;5048015;28;20079;-60
2022/03/27 09:14:03;;;;;;;20.77;11.40;;;10.90;50.20;;;10.97;44.99;98790.50;5046961;28;20059;-60
2022/03/27 09:17:02;;;;;;;16.57;10.80;;;11.00;50.10;;;11.03;45.17;98797.97;5046963;28;20045;-60
2022/03/27 09:19:33;;;;;;;20.77;11.70;;;11.00;50.20;;;11.11;45.11;98786.63;5032382;28;20104;-59
2022/03/27 09:22:19;;;;;;;21.83;11.47;;;11.10;50.10;;;11.17;45.01;98791.44;5046347;28;20057;-59
2022/03/27 09:25:04;;;;;;;19.80;12.23;;;11.20;50.20;;;11.23;44.97;98789.03;5048977;28;20400;-60
2022/03/27 09:27:36;;;;;;;20.07;12.83;;;11.20;50.00;;;11.28;45.01;98790.44;5046374;28;20053;-60
2022/03/27 09:30:08;;;;;;;20.90;10.63;;;11.30;50.10;;;11.33;44.54;98790.91;5046494;28;20060;-59
2022/03/27 09:32:45;;;;;;;18.93;11.77;;;11.40;49.80;;;11.43;44.47;98781.06;5046376;28;20393;-55
2022/03/27 09:35:17;;;;;;;21.60;12.67;;;11.40;49.80;;;11.49;44.57;98787.69;5046971;28;20288;-59
2022/03/27 09:37:47;;;;;;;19.80;11.73;;;11.50;49.80;;;11.55;44.70;98784.44;5046405;28;20037;-58
2022/03/27 09:40:17;;;;;;;21.17;10.87;;;11.60;49.70;;;11.58;44.17;98785.00;5047735;28;20053;-59
2022/03/27 09:42:47;;;;;;;19.20;12.50;;;11.60;49.00;;;11.67;43.98;98779.81;5046766;28;20057;-59
2022/03/27 09:45:23;;;;;;;22.97;10.97;;;11.70;48.90;;;11.72;44.28;98780.25;5047719;28;20056;-61
2022/03/27 09:47:53;;;;;;;20.43;11.70;;;11.80;48.70;;;11.78;43.94;98780.50;5047253;28;20067;-59
2022/03/27 09:50:40;;;;;;;21.87;12.03;;;11.80;48.50;;;11.84;43.94;98776.44;5046537;28;20419;-59
2022/03/27 09:53:29;;;;;;;21.57;11.83;;;11.90;48.10;;;11.91;43.87;98774.09;5048237;28;20068;-60
2022/03/27 09:56:00;;;;;;;16.87;10.53;;;11.90;48.30;;;11.96;43.63;98770.03;5047208;28;20059;-60
2022/03/27 09:58:41;;;;;;;20.98;12.45;;;12.00;48.20;;;12.01;43.52;98773.09;5047970;28;20131;-59
2022/03/27 10:01:25;;;;;;;20.63;11.33;;;12.10;48.40;;;12.08;43.28;98777.84;5046604;28;20361;-60
2022/03/27 10:03:59;;;;;;;;;;;12.10;48.00;;;12.08;43.56;98767.16;5047949;28;20074;-59
2022/03/27 10:06:35;;;;;;;17.50;10.60;;;12.20;48.00;;;12.21;43.57;98773.03;5047135;28;19917;-58
2022/03/27 10:09:06;;;;;;;23.20;11.82;;;12.20;48.10;;;12.31;43.37;98775.69;5045775;28;20247;-58
2022/03/27 10:11:35;;;;;;;18.90;10.97;;;12.30;47.50;;;12.35;43.33;98764.59;5047340;28;20044;-58
2022/03/27 10:14:06;;;;;;;17.77;12.27;;;12.40;47.70;;;12.43;42.93;98766.53;5045581;28;20355;-58
2022/03/27 10:16:46;;;;;;;16.13;10.82;;;12.50;46.90;;;12.53;42.75;98766.50;5047139;28;20051;-58
2022/03/27 10:19:26;;;;;;;18.73;11.50;;;12.70;46.70;;;12.61;42.86;98756.75;5046513;28;20060;-61
2022/03/27 10:21:54;;;;;;;19.58;10.63;;;12.80;46.70;;;12.71;42.85;98751.38;5047097;28;20059;-58
2022/03/27 10:24:32;;;;;;;25.15;11.90;;;12.80;46.70;;;12.78;42.16;98748.97;5046052;28;20059;-59
2022/03/27 10:27:02;;;;;;;20.67;12.50;;;12.90;46.80;;;12.86;42.91;98748.22;5045663;28;20049;-59
2022/03/27 10:29:30;;;;;;;18.58;10.93;;;13.10;47.10;;;12.92;42.63;98744.94;5046942;28;20049;-59
2022/03/27 10:31:59;;;;;;;21.77;11.55;;;13.10;46.80;;;12.96;42.33;98741.81;5044155;28;20057;-58
2022/03/27 10:34:29;;;;;;;23.42;11.77;;;13.10;46.30;;;13.03;41.77;98739.41;5046448;28;20397;-58
2022/03/27 10:37:08;;;;;;;16.77;10.85;;;13.20;46.00;;;13.10;41.90;98735.13;5045516;28;20041;-58
2022/03/27 10:39:55;;;;;;;17.83;11.15;;;13.20;46.10;;;13.17;42.30;98735.38;5044200;28;20045;-57